createdAt,value
2022-10-21T00:00:16.476Z,99.99
2022-10-21T00:01:16.507Z,99.99
2022-10-21T00:02:16.439Z,99.99
2022-10-21T00:03:16.378Z,99.99
2022-10-21T00:04:16.348Z,99.99
2022-10-21T00:05:16.399Z,99.99
2022-10-21T00:06:16.283Z,99.99
2022-10-21T00:07:16.312Z,99.99
2022-10-21T00:08:16.233Z,99.99
2022-10-21T00:09:16.209Z,99.99
2022-10-21T00:10:16.145Z,99.99
2022-10-21T00:11:16.111Z,99.99
2022-10-21T00:12:16.084Z,99.99
2022-10-21T00:13:16.109Z,99.99
2022-10-21T00:14:16.057Z,99.99
2022-10-21T00:15:15.991Z,99.99
2022-10-21T00:16:15.960Z,99.99
2022-10-21T00:17:15.911Z,99.99
2022-10-21T00:18:15.876Z,99.99
2022-10-21T00:19:15.910Z,99.99
2022-10-21T00:20:15.881Z,99.99
2022-10-21T00:21:15.842Z,99.99
2022-10-21T00:22:15.745Z,99.99
2022-10-21T00:23:15.716Z,99.99
2022-10-21T00:24:15.677Z,99.99
2022-10-21T00:25:15.682Z,99.99
2022-10-21T00:26:15.679Z,99.99
2022-10-21T00:27:15.596Z,99.99
2022-10-21T00:28:15.571Z,99.99
2022-10-21T00:29:15.581Z,99.99
2022-10-21T00:30:15.478Z,99.99
2022-10-21T00:31:15.459Z,99.99
2022-10-21T00:32:15.513Z,99.99
2022-10-21T00:33:15.375Z,99.99
2022-10-21T00:34:15.343Z,99.99
2022-10-21T00:35:15.317Z,99.99
2022-10-21T00:36:15.567Z,99.99
2022-10-21T00:37:15.328Z,99.99
2022-10-21T00:38:15.243Z,99.99
2022-10-21T00:39:15.192Z,99.99
2022-10-21T00:40:15.160Z,99.99
2022-10-21T00:41:15.121Z,99.99
2022-10-21T00:42:15.126Z,99.99
2022-10-21T00:43:15.119Z,99.99
2022-10-21T00:44:15.023Z,99.99
2022-10-21T00:45:14.976Z,99.99
2022-10-21T00:46:14.958Z,99.99
2022-10-21T00:47:14.937Z,99.99
2022-10-21T00:48:14.890Z,99.99
2022-10-21T00:49:14.908Z,99.99
2022-10-21T00:50:14.828Z,99.99
2022-10-21T00:51:14.786Z,99.99
2022-10-21T00:52:14.773Z,99.99
2022-10-21T00:53:14.774Z,99.99
2022-10-21T00:54:14.734Z,99.99
2022-10-21T00:55:14.644Z,99.99
2022-10-21T00:56:16.503Z,99.99
2022-10-21T00:57:14.583Z,99.99
2022-10-21T00:58:14.580Z,99.99
2022-10-21T00:59:14.598Z,99.99
2022-10-21T01:00:14.541Z,99.99
2022-10-21T01:01:17.903Z,99.99
2022-10-21T01:02:14.494Z,99.99
2022-10-21T01:03:14.387Z,99.99
2022-10-21T01:04:14.377Z,99.99
2022-10-21T01:05:14.314Z,99.99
2022-10-21T01:06:14.357Z,99.99
2022-10-21T01:07:14.258Z,99.99
2022-10-21T01:08:14.972Z,99.99
2022-10-21T01:09:14.234Z,99.99
2022-10-21T01:10:14.146Z,99.99
2022-10-21T01:11:14.115Z,99.99
2022-10-21T01:12:14.150Z,99.99
2022-10-21T01:13:14.052Z,99.99
2022-10-21T01:14:14.016Z,99.99
2022-10-21T01:15:14.005Z,99.99
2022-10-21T01:16:13.955Z,99.99
2022-10-21T01:17:26.274Z,99.99
2022-10-21T01:18:13.901Z,99.99
2022-10-21T01:19:13.933Z,99.99
2022-10-21T01:20:13.830Z,99.99
2022-10-21T01:21:13.799Z,99.99
2022-10-21T01:22:13.748Z,99.99
2022-10-21T01:23:13.730Z,99.99
2022-10-21T01:24:13.693Z,99.99
2022-10-21T01:25:13.824Z,99.99
2022-10-21T01:26:13.646Z,99.99
2022-10-21T01:27:13.603Z,99.99
2022-10-21T01:28:13.576Z,99.99
2022-10-21T01:29:13.522Z,99.99
2022-10-21T01:30:13.571Z,99.99
2022-10-21T01:31:13.477Z,99.99
2022-10-21T01:32:13.450Z,99.99
2022-10-21T01:33:13.403Z,99.99
2022-10-21T01:34:13.361Z,99.99
2022-10-21T01:35:13.464Z,99.99
2022-10-21T01:36:13.349Z,99.99
2022-10-21T01:37:13.943Z,99.99
2022-10-21T01:38:13.287Z,99.99
2022-10-21T01:39:13.190Z,99.99
2022-10-21T01:40:13.151Z,99.99
2022-10-21T01:41:13.176Z,99.99
2022-10-21T01:42:13.119Z,99.99
2022-10-21T01:43:13.061Z,99.99
2022-10-21T01:44:13.031Z,99.99
2022-10-21T01:45:13.060Z,99.99
2022-10-21T01:46:12.966Z,99.99
2022-10-21T01:47:12.928Z,99.99
2022-10-21T01:48:12.906Z,99.99
2022-10-21T01:49:12.861Z,99.99
2022-10-21T01:50:12.841Z,99.99
2022-10-21T01:51:12.950Z,99.99
2022-10-21T01:52:12.791Z,99.99
2022-10-21T01:53:12.752Z,99.99
2022-10-21T01:54:12.704Z,99.99
2022-10-21T01:55:12.659Z,99.99
2022-10-21T01:56:12.691Z,99.99
2022-10-21T01:57:12.609Z,99.99
2022-10-21T01:58:12.569Z,99.99
2022-10-21T01:59:12.560Z,99.99
2022-10-21T02:00:12.548Z,99.99
2022-10-21T02:01:12.603Z,99.99
2022-10-21T02:02:12.443Z,99.99
2022-10-21T02:03:12.418Z,99.99
2022-10-21T02:04:12.370Z,99.99
2022-10-21T02:05:12.328Z,99.99
2022-10-21T02:06:12.389Z,99.99
2022-10-21T02:07:12.348Z,99.99
2022-10-21T02:08:12.245Z,99.99
2022-10-21T02:09:12.355Z,99.99
2022-10-21T02:10:13.320Z,99.99
2022-10-21T02:11:12.249Z,99.99
2022-10-21T02:12:12.834Z,99.99
2022-10-21T02:13:12.971Z,99.99
2022-10-21T02:14:12.844Z,99.99
2022-10-21T02:15:12.822Z,99.99
2022-10-21T02:16:12.000Z,99.99
2022-10-21T02:17:11.942Z,99.99
2022-10-21T02:18:11.893Z,99.99
2022-10-21T02:19:12.461Z,99.99
2022-10-21T02:20:11.863Z,99.99
2022-10-21T02:21:11.806Z,99.99
2022-10-21T02:22:11.795Z,99.99
2022-10-21T02:23:11.732Z,99.99
2022-10-21T02:24:11.697Z,99.99
2022-10-21T02:25:11.800Z,99.99
2022-10-21T02:26:11.628Z,99.99
2022-10-21T02:27:11.633Z,99.99
2022-10-21T02:28:11.583Z,99.99
2022-10-21T02:29:11.532Z,99.99
2022-10-21T02:30:11.578Z,99.99
2022-10-21T02:31:11.481Z,99.99
2022-10-21T02:32:11.440Z,99.99
2022-10-21T02:33:11.472Z,99.99
2022-10-21T02:34:11.394Z,99.99
2022-10-21T02:35:11.333Z,99.99
2022-10-21T02:36:11.305Z,99.99
2022-10-21T02:37:11.274Z,99.99
2022-10-21T02:38:11.293Z,99.99
2022-10-21T02:39:11.200Z,99.99
2022-10-21T02:40:11.170Z,99.99
2022-10-21T02:41:11.144Z,99.99
2022-10-21T02:42:11.115Z,99.99
2022-10-21T02:43:11.150Z,99.99
2022-10-21T02:44:11.042Z,99.99
2022-10-21T02:45:11.009Z,99.99
2022-10-21T02:46:10.982Z,99.99
2022-10-21T02:48:10.907Z,99.99
2022-10-21T02:49:10.948Z,99.99
2022-10-21T02:50:10.837Z,99.99
2022-10-21T02:51:10.823Z,99.99
2022-10-21T02:52:10.775Z,99.99
2022-10-21T02:53:10.744Z,99.99
2022-10-21T02:54:10.776Z,99.99
2022-10-21T02:55:10.683Z,99.99
2022-10-21T02:56:10.640Z,99.99
2022-10-21T02:57:10.609Z,99.99
2022-10-21T02:58:10.576Z,99.99
2022-10-21T02:59:10.558Z,99.99
2022-10-21T03:00:10.570Z,99.99
2022-10-21T03:01:10.524Z,99.99
2022-10-21T03:02:10.439Z,99.99
2022-10-21T03:03:10.433Z,99.99
2022-10-21T03:04:10.372Z,99.99
2022-10-21T03:05:10.425Z,99.99
2022-10-21T03:06:10.333Z,99.99
2022-10-21T03:07:10.317Z,99.99
2022-10-21T03:08:10.244Z,99.99
2022-10-21T03:09:10.222Z,99.99
2022-10-21T03:10:10.173Z,99.99
2022-10-21T03:11:10.215Z,99.99
2022-10-21T03:12:10.123Z,99.99
2022-10-21T03:13:10.078Z,99.99
2022-10-21T03:14:10.044Z,99.99
2022-10-21T03:15:10.016Z,99.99
2022-10-21T03:16:10.018Z,99.99
2022-10-21T03:17:10.009Z,99.99
2022-10-21T03:18:09.921Z,99.99
2022-10-21T03:19:09.874Z,99.99
2022-10-21T03:20:09.879Z,99.99
2022-10-21T03:21:09.816Z,99.99
2022-10-21T03:22:09.776Z,99.99
2022-10-21T03:23:09.820Z,99.99
2022-10-21T03:24:15.431Z,99.99
2022-10-21T03:25:09.680Z,99.99
2022-10-21T03:26:11.341Z,99.99
2022-10-21T03:27:09.619Z,99.99
2022-10-21T03:28:09.584Z,99.99
2022-10-21T03:29:09.623Z,99.99
2022-10-21T03:30:09.537Z,99.99
2022-10-21T03:31:09.630Z,99.99
2022-10-21T03:32:09.522Z,99.99
2022-10-21T03:33:09.425Z,99.99
2022-10-21T03:34:09.389Z,99.99
2022-10-21T03:35:09.355Z,99.99
2022-10-21T03:36:09.332Z,99.99
2022-10-21T03:37:09.353Z,99.99
2022-10-21T03:38:09.265Z,99.99
2022-10-21T03:39:09.242Z,99.99
2022-10-21T03:40:12.259Z,99.99
2022-10-21T03:41:09.149Z,99.99
2022-10-21T03:42:09.562Z,99.99
2022-10-21T03:43:09.105Z,99.99
2022-10-21T03:44:09.069Z,99.99
2022-10-21T03:45:09.031Z,99.99
2022-10-21T03:46:08.986Z,99.99
2022-10-21T03:47:09.017Z,99.99
2022-10-21T03:48:08.934Z,99.99
2022-10-21T03:49:15.488Z,99.99
2022-10-21T03:50:12.127Z,99.99
2022-10-21T03:51:08.816Z,99.99
2022-10-21T03:52:08.803Z,99.99
2022-10-21T03:53:18.554Z,99.99
2022-10-21T03:54:08.735Z,99.99
2022-10-21T03:55:08.696Z,99.99
2022-10-21T03:56:08.659Z,99.99
2022-10-21T03:57:08.624Z,99.99
2022-10-21T03:58:08.653Z,99.99
2022-10-21T03:59:08.592Z,99.99
2022-10-21T04:00:08.642Z,99.99
2022-10-21T04:01:08.516Z,99.99
2022-10-21T04:02:08.535Z,99.99
2022-10-21T04:03:08.509Z,99.99
2022-10-21T04:04:08.402Z,99.99
2022-10-21T04:05:08.369Z,99.99
2022-10-21T04:06:08.346Z,99.99
2022-10-21T04:07:08.313Z,99.99
2022-10-21T04:08:08.321Z,99.99
2022-10-21T04:09:08.412Z,99.99
2022-10-21T04:10:08.241Z,99.99
2022-10-21T04:11:08.191Z,99.99
2022-10-21T04:12:08.128Z,99.99
2022-10-21T04:13:08.166Z,99.99
2022-10-21T04:14:11.529Z,99.99
2022-10-21T04:15:08.032Z,99.99
2022-10-21T04:16:08.000Z,99.99
2022-10-21T04:17:08.164Z,99.99
2022-10-21T04:18:07.950Z,99.99
2022-10-21T04:19:07.951Z,99.99
2022-10-21T04:20:07.866Z,99.99
2022-10-21T04:21:07.946Z,99.99
2022-10-21T04:22:07.878Z,99.99
2022-10-21T04:23:07.759Z,99.99
2022-10-21T04:24:07.725Z,99.99
2022-10-21T04:25:07.687Z,99.99
2022-10-21T04:26:07.661Z,99.99
2022-10-21T04:27:07.636Z,99.99
2022-10-21T04:28:07.645Z,99.99
2022-10-21T04:29:07.620Z,99.99
2022-10-21T04:30:07.565Z,99.99
2022-10-21T04:31:07.543Z,99.99
2022-10-21T04:32:07.538Z,99.99
2022-10-21T04:33:07.472Z,99.99
2022-10-21T04:34:07.645Z,99.99
2022-10-21T04:35:08.354Z,99.99
2022-10-21T04:36:07.372Z,99.99
2022-10-21T04:37:07.359Z,99.99
2022-10-21T04:38:07.271Z,99.99
2022-10-21T04:39:07.236Z,99.99
2022-10-21T04:40:07.250Z,99.99
2022-10-21T04:41:07.214Z,99.99
2022-10-21T04:42:07.219Z,99.99
2022-10-21T04:43:07.209Z,99.99
2022-10-21T04:44:07.175Z,99.99
2022-10-21T04:45:07.035Z,99.99
2022-10-21T04:46:08.834Z,99.99
2022-10-21T04:47:06.978Z,99.99
2022-10-21T04:48:07.032Z,99.99
2022-10-21T04:49:07.857Z,99.99
2022-10-21T04:50:06.890Z,99.99
2022-10-21T04:51:06.849Z,99.99
2022-10-21T04:52:06.794Z,99.99
2022-10-21T04:53:06.788Z,99.99
2022-10-21T04:54:06.813Z,99.99
2022-10-21T04:55:06.726Z,99.99
2022-10-21T04:56:06.685Z,99.99
2022-10-21T04:57:06.657Z,99.99
2022-10-21T04:58:06.632Z,99.99
2022-10-21T04:59:06.645Z,99.99
2022-10-21T05:00:06.587Z,99.99
2022-10-21T05:01:06.507Z,99.99
2022-10-21T05:02:06.463Z,99.99
2022-10-21T05:03:06.441Z,99.99
2022-10-21T05:04:06.396Z,99.99
2022-10-21T05:05:06.367Z,99.99
2022-10-21T05:06:06.389Z,99.99
2022-10-21T05:07:06.293Z,99.99
2022-10-21T05:08:11.403Z,99.99
2022-10-21T05:09:06.262Z,99.99
2022-10-21T05:10:06.203Z,99.99
2022-10-21T05:11:06.158Z,99.99
2022-10-21T05:12:06.183Z,99.99
2022-10-21T05:13:06.128Z,99.99
2022-10-21T05:14:06.063Z,99.99
2022-10-21T05:15:06.033Z,99.99
2022-10-21T05:16:05.994Z,99.99
2022-10-21T05:17:05.960Z,99.99
2022-10-21T05:18:05.986Z,99.99
2022-10-21T05:19:05.893Z,99.99
2022-10-21T05:20:05.866Z,99.99
2022-10-21T05:21:05.834Z,99.99
2022-10-21T05:22:05.793Z,99.99
2022-10-21T05:23:05.756Z,99.99
2022-10-21T05:24:05.796Z,99.99
2022-10-21T05:25:05.692Z,99.99
2022-10-21T05:26:05.661Z,99.99
2022-10-21T05:27:05.626Z,99.99
2022-10-21T05:28:05.625Z,99.99
2022-10-21T05:29:05.563Z,99.99
2022-10-21T05:30:05.573Z,99.99
2022-10-21T05:31:05.493Z,99.99
2022-10-21T05:32:05.509Z,99.99
2022-10-21T05:33:05.429Z,99.99
2022-10-21T05:34:05.397Z,99.99
2022-10-21T05:35:05.370Z,99.99
2022-10-21T05:36:05.376Z,99.99
2022-10-21T05:37:05.288Z,99.99
2022-10-21T05:38:05.262Z,99.99
2022-10-21T05:39:05.225Z,99.99
2022-10-21T05:40:05.191Z,99.99
2022-10-21T05:41:05.220Z,99.99
2022-10-21T05:42:05.127Z,99.99
2022-10-21T05:43:05.091Z,99.99
2022-10-21T05:44:05.076Z,99.99
2022-10-21T05:45:05.022Z,99.99
2022-10-21T05:46:05.056Z,99.99
2022-10-21T05:47:04.962Z,99.99
2022-10-21T05:48:04.933Z,99.99
2022-10-21T05:49:04.895Z,99.99
2022-10-21T05:50:04.916Z,99.99
2022-10-21T05:51:04.826Z,99.99
2022-10-21T05:52:04.871Z,99.99
2022-10-21T05:53:04.765Z,99.99
2022-10-21T05:54:04.730Z,99.99
2022-10-21T05:55:04.691Z,99.99
2022-10-21T05:56:04.754Z,99.99
2022-10-21T05:57:04.692Z,99.99
2022-10-21T05:58:04.603Z,99.99
2022-10-21T05:59:07.873Z,99.99
2022-10-21T06:00:04.525Z,99.99
2022-10-21T06:01:04.527Z,99.99
2022-10-21T06:02:04.468Z,99.99
2022-10-21T06:03:04.489Z,99.99
2022-10-21T06:04:04.397Z,99.99
2022-10-21T06:05:04.365Z,99.99
2022-10-21T06:06:04.988Z,99.99
2022-10-21T06:07:04.304Z,99.99
2022-10-21T06:08:04.259Z,99.99
2022-10-21T06:09:04.326Z,99.99
2022-10-21T06:10:04.246Z,99.99
2022-10-21T06:11:04.164Z,99.99
2022-10-21T06:12:04.131Z,99.99
2022-10-21T06:13:04.150Z,99.99
2022-10-21T06:14:04.066Z,99.99
2022-10-21T06:15:04.030Z,99.99
2022-10-21T06:17:03.968Z,99.99
2022-10-21T06:18:03.995Z,99.99
2022-10-21T06:19:03.911Z,99.99
2022-10-21T06:20:03.878Z,99.99
2022-10-21T06:21:03.833Z,99.99
2022-10-21T06:22:03.797Z,99.99
2022-10-21T06:23:03.816Z,99.99
2022-10-21T06:24:03.730Z,99.99
2022-10-21T06:25:03.738Z,99.52
2022-10-21T06:26:03.670Z,99.62
2022-10-21T06:27:03.633Z,99.62
2022-10-21T06:28:03.669Z,99.93
2022-10-21T06:29:03.571Z,99.99
2022-10-21T06:30:03.533Z,99.99
2022-10-21T06:31:03.498Z,99.99
2022-10-21T06:32:03.539Z,99.99
2022-10-21T06:33:03.463Z,99.72
2022-10-21T06:34:03.454Z,99.57
2022-10-21T06:35:03.393Z,99.68
2022-10-21T06:36:03.336Z,99.47
2022-10-21T06:37:03.354Z,99.99
2022-10-21T06:38:03.344Z,99.57
2022-10-21T06:39:03.243Z,99.98
2022-10-21T06:40:03.209Z,99.99
2022-10-21T06:41:03.287Z,99.99
2022-10-21T06:42:03.156Z,99.78
2022-10-21T06:43:03.119Z,99.88
2022-10-21T06:44:03.141Z,99.68
2022-10-21T06:45:03.096Z,99.99
2022-10-21T06:46:03.024Z,99.84
2022-10-21T06:47:02.976Z,99.93
2022-10-21T06:48:02.947Z,99.47
2022-10-21T06:49:02.918Z,99.93
2022-10-21T06:50:02.928Z,99.32
2022-10-21T06:51:02.865Z,99.22
2022-10-21T06:52:02.820Z,98.91
2022-10-21T06:53:02.853Z,99.43
2022-10-21T06:54:02.757Z,99.84
2022-10-21T06:55:02.715Z,99.22
2022-10-21T06:56:02.683Z,99.32
2022-10-21T06:57:02.650Z,98.91
2022-10-21T06:58:02.617Z,98.81
2022-10-21T06:59:02.647Z,99.02
2022-10-21T07:00:02.579Z,99.38
2022-10-21T07:01:02.554Z,98.77
2022-10-21T07:02:02.490Z,98.77
2022-10-21T07:03:02.476Z,98.66
2022-10-21T07:04:02.488Z,98.97
2022-10-21T07:05:02.383Z,98.97
2022-10-21T07:06:02.353Z,98.66
2022-10-21T07:07:02.439Z,98.77
2022-10-21T07:08:02.824Z,98.66
2022-10-21T07:09:02.314Z,99.07
2022-10-21T07:10:02.283Z,98.86
2022-10-21T07:11:02.889Z,98.36
2022-10-21T07:12:02.160Z,98.97
2022-10-21T07:13:02.216Z,98.72
2022-10-21T07:14:02.106Z,98.21
2022-10-21T07:15:02.119Z,98.31
2022-10-21T07:16:02.054Z,98.21
2022-10-21T07:17:02.004Z,98.61
2022-10-21T07:18:01.967Z,97.60
2022-10-21T07:19:01.956Z,97.75
2022-10-21T07:20:01.971Z,97.86
2022-10-21T07:21:01.867Z,97.86
2022-10-21T07:22:01.836Z,96.78
2022-10-21T07:23:01.819Z,96.94
2022-10-21T07:24:01.772Z,97.04
2022-10-21T07:26:01.766Z,96.28
2022-10-21T07:27:01.672Z,96.53
2022-10-21T07:28:01.645Z,96.73
2022-10-21T07:29:01.613Z,96.18
2022-10-21T07:30:01.581Z,96.59
2022-10-21T07:31:01.557Z,96.08
2022-10-21T07:32:01.578Z,95.36
2022-10-21T07:33:01.549Z,95.36
2022-10-21T07:34:01.540Z,95.93
2022-10-21T07:35:01.418Z,95.32
2022-10-21T07:36:01.394Z,94.30
2022-10-21T07:37:01.353Z,95.42
2022-10-21T07:38:01.372Z,95.32
2022-10-21T07:39:01.295Z,94.20
2022-10-21T07:40:01.309Z,94.40
2022-10-21T07:41:01.225Z,94.26
2022-10-21T07:42:01.195Z,94.15
2022-10-21T07:43:01.196Z,94.31
2022-10-21T07:44:01.905Z,93.90
2022-10-21T07:45:01.156Z,94.21
2022-10-21T07:46:03.195Z,94.37
2022-10-21T07:47:01.035Z,93.50
2022-10-21T07:48:01.040Z,93.15
2022-10-21T07:49:00.982Z,92.13
2022-10-21T07:50:01.029Z,92.33
2022-10-21T07:51:00.921Z,92.64
2022-10-21T07:52:00.968Z,91.78
2022-10-21T07:53:08.868Z,91.58
2022-10-21T07:54:01.510Z,92.29
2022-10-21T07:55:00.826Z,91.99
2022-10-21T07:56:00.757Z,91.78
2022-10-21T07:57:00.779Z,91.48
2022-10-21T07:58:00.717Z,91.48
2022-10-21T07:59:00.683Z,91.58
2022-10-21T08:00:00.632Z,91.48
2022-10-21T08:01:00.635Z,91.27
2022-10-21T08:02:00.567Z,91.64
2022-10-21T08:03:00.599Z,90.97
2022-10-21T08:04:00.499Z,91.43
2022-10-21T08:05:01.403Z,91.03
2022-10-21T08:06:00.446Z,90.46
2022-10-21T08:07:00.412Z,91.13
2022-10-21T08:08:00.394Z,91.13
2022-10-21T08:09:00.456Z,90.83
2022-10-21T08:10:00.312Z,91.03
2022-10-21T08:11:00.290Z,91.03
2022-10-21T08:12:00.290Z,91.17
2022-10-21T08:13:00.239Z,91.17
2022-10-21T08:14:00.194Z,90.83
2022-10-21T08:15:00.232Z,91.38
2022-10-21T08:16:00.137Z,90.72
2022-10-21T08:17:00.099Z,90.72
2022-10-21T08:18:00.067Z,90.62
2022-10-21T08:19:00.037Z,90.48
2022-10-21T08:20:00.117Z,90.99
2022-10-21T08:21:00.049Z,90.68
2022-10-21T08:21:59.948Z,90.37
2022-10-21T08:22:59.917Z,90.33
2022-10-21T08:23:59.918Z,90.44
2022-10-21T08:24:59.856Z,90.44
2022-10-21T08:25:59.868Z,90.33
2022-10-21T08:26:59.796Z,89.31
2022-10-21T08:27:59.759Z,89.72
2022-10-21T08:28:59.762Z,89.68
2022-10-21T08:29:59.709Z,89.48
2022-10-21T08:30:59.713Z,88.87
2022-10-21T08:31:59.649Z,88.93
2022-10-21T08:32:59.615Z,88.62
2022-10-21T08:33:59.573Z,88.07
2022-10-21T08:34:59.547Z,87.77
2022-10-21T08:35:59.574Z,87.67
2022-10-21T08:36:59.485Z,88.18
2022-10-21T08:37:59.486Z,87.57
2022-10-21T08:38:59.421Z,87.97
2022-10-21T08:39:59.421Z,88.34
2022-10-21T08:40:59.418Z,87.22
2022-10-21T08:41:59.353Z,87.38
2022-10-21T08:42:59.324Z,86.57
2022-10-21T08:43:59.271Z,86.22
2022-10-21T08:44:59.259Z,85.82
2022-10-21T08:45:59.258Z,85.46
2022-10-21T08:46:59.311Z,85.93
2022-10-21T08:47:59.176Z,85.52
2022-10-21T08:48:59.123Z,86.13
2022-10-21T08:49:59.140Z,85.88
2022-10-21T08:50:59.121Z,85.07
2022-10-21T08:51:59.038Z,85.48
2022-10-21T08:52:59.535Z,84.97
2022-10-21T08:53:58.974Z,84.56
2022-10-21T08:54:58.945Z,84.83
2022-10-21T08:55:58.965Z,84.42
2022-10-21T08:56:58.885Z,84.97
2022-10-21T08:57:58.867Z,85.13
2022-10-21T08:58:58.823Z,84.73
2022-10-21T08:59:58.804Z,84.22
2022-10-21T09:00:58.819Z,84.93
2022-10-21T09:01:58.733Z,84.93
2022-10-21T09:02:58.748Z,84.93
2022-10-21T09:03:58.731Z,85.03
2022-10-21T09:04:58.666Z,84.83
2022-10-21T09:06:10.057Z,84.53
2022-10-21T09:06:58.588Z,83.98
2022-10-21T09:07:58.554Z,83.58
2022-10-21T09:08:58.794Z,84.19
2022-10-21T09:09:58.493Z,83.64
2022-10-21T09:10:58.469Z,83.54
2022-10-21T09:11:58.436Z,83.64
2022-10-21T09:12:58.409Z,83.84
2022-10-21T09:13:58.377Z,83.94
2022-10-21T09:14:58.410Z,84.34
2022-10-21T09:15:58.319Z,83.94
2022-10-21T09:16:58.287Z,83.54
2022-10-21T09:17:58.265Z,83.54
2022-10-21T09:18:58.247Z,83.94
2022-10-21T09:19:58.202Z,84.14
2022-10-21T09:21:01.653Z,84.34
2022-10-21T09:22:05.834Z,85.16
2022-10-21T09:22:58.166Z,84.34
2022-10-21T09:23:58.093Z,83.94
2022-10-21T09:24:58.067Z,83.44
2022-10-21T09:25:58.038Z,82.89
2022-10-21T09:26:58.047Z,83.60
2022-10-21T09:27:58.286Z,83.60
2022-10-21T09:28:57.951Z,83.19
2022-10-21T09:29:57.931Z,83.70
2022-10-21T09:30:57.888Z,83.19
2022-10-21T09:32:02.241Z,83.90
2022-10-21T09:32:57.831Z,83.70
2022-10-21T09:33:57.793Z,83.26
2022-10-21T09:34:57.772Z,83.36
2022-10-21T09:35:57.745Z,82.75
2022-10-21T09:36:57.756Z,83.22
2022-10-21T09:37:57.727Z,83.36
2022-10-21T09:38:57.889Z,82.71
2022-10-21T09:39:57.621Z,82.61
2022-10-21T09:40:57.595Z,82.41
2022-10-21T09:41:59.372Z,83.52
2022-10-21T09:42:57.535Z,83.12
2022-10-21T09:43:57.504Z,83.01
2022-10-21T09:44:57.539Z,83.22
2022-10-21T09:45:57.446Z,81.87
2022-10-21T09:46:57.421Z,81.62
2022-10-21T09:47:57.396Z,81.68
2022-10-21T09:49:32.461Z,80.58
2022-10-21T09:50:12.760Z,79.77
2022-10-21T09:50:57.376Z,79.97
2022-10-21T09:51:57.297Z,80.27
2022-10-21T09:52:57.257Z,80.88
2022-10-21T09:53:57.224Z,79.97
2022-10-21T09:54:57.197Z,79.77
2022-10-21T09:55:57.236Z,79.77
2022-10-21T09:56:57.197Z,80.07
2022-10-21T09:58:07.513Z,79.87
2022-10-21T09:59:00.614Z,80.07
2022-10-21T09:59:57.644Z,80.44
2022-10-21T10:00:57.085Z,79.53
2022-10-21T10:01:57.077Z,79.63
2022-10-21T10:02:56.970Z,78.92
2022-10-21T10:03:56.943Z,79.23
2022-10-21T10:04:57.178Z,79.43
2022-10-21T10:05:56.889Z,79.63
2022-10-21T10:06:58.508Z,78.42
2022-10-21T10:07:56.837Z,77.88
2022-10-21T10:08:56.883Z,78.69
2022-10-21T10:09:56.827Z,78.28
2022-10-21T10:10:56.749Z,77.38
2022-10-21T10:11:56.750Z,78.42
2022-10-21T10:12:57.617Z,78.02
2022-10-21T10:13:56.671Z,78.02
2022-10-21T10:14:56.695Z,78.42
2022-10-21T10:15:56.621Z,78.63
2022-10-21T10:16:56.764Z,78.32
2022-10-21T10:17:56.551Z,78.52
2022-10-21T10:18:56.524Z,78.52
2022-10-21T10:19:56.553Z,79.03
2022-10-21T10:20:56.475Z,78.32
2022-10-21T10:21:56.479Z,78.72
2022-10-21T10:22:56.457Z,78.92
2022-10-21T10:23:56.444Z,78.63
2022-10-21T10:24:56.362Z,79.13
2022-10-21T10:25:56.360Z,79.43
2022-10-21T10:26:56.319Z,78.83
2022-10-21T10:27:56.395Z,79.33
2022-10-21T10:28:56.311Z,78.52
2022-10-21T10:29:56.278Z,78.63
2022-10-21T10:30:56.261Z,78.22
2022-10-21T10:31:56.177Z,78.22
2022-10-21T10:32:56.139Z,78.42
2022-10-21T10:33:58.851Z,78.02
2022-10-21T10:34:56.108Z,77.72
2022-10-21T10:35:56.130Z,78.42
2022-10-21T10:36:56.029Z,77.92
2022-10-21T10:37:56.014Z,78.46
2022-10-21T10:38:55.975Z,78.66
2022-10-21T10:39:56.018Z,78.86
2022-10-21T10:40:58.491Z,78.56
2022-10-21T10:41:56.025Z,78.36
2022-10-21T10:42:55.866Z,77.95
2022-10-21T10:43:55.837Z,78.96
2022-10-21T10:44:55.812Z,78.56
2022-10-21T10:45:55.844Z,78.46
2022-10-21T10:46:55.860Z,78.76
2022-10-21T10:47:55.724Z,78.56
2022-10-21T10:48:55.716Z,78.36
2022-10-21T10:49:55.668Z,78.36
2022-10-21T10:50:55.639Z,78.96
2022-10-21T10:51:55.655Z,78.36
2022-10-21T10:52:55.632Z,78.86
2022-10-21T10:53:55.554Z,78.36
2022-10-21T10:54:55.531Z,77.86
2022-10-21T10:55:55.570Z,77.15
2022-10-21T10:56:55.470Z,77.82
2022-10-21T10:58:06.437Z,77.92
2022-10-21T10:58:55.452Z,77.31
2022-10-21T10:59:55.391Z,77.51
2022-10-21T11:00:55.396Z,77.01
2022-10-21T11:01:55.328Z,77.68
2022-10-21T11:02:55.303Z,77.08
2022-10-21T11:03:55.335Z,77.68
2022-10-21T11:04:55.257Z,77.58
2022-10-21T11:05:55.221Z,76.97
2022-10-21T11:06:55.194Z,76.97
2022-10-21T11:07:55.172Z,77.28
2022-10-21T11:08:55.198Z,77.68
2022-10-21T11:09:55.182Z,76.97
2022-10-21T11:10:55.090Z,77.78
2022-10-21T11:11:55.217Z,77.31
2022-10-21T11:12:55.043Z,77.72
2022-10-21T11:13:55.025Z,78.66
2022-10-21T11:14:54.967Z,78.56
2022-10-21T11:15:54.996Z,79.16
2022-10-21T11:17:00.548Z,79.47
2022-10-21T11:17:54.892Z,79.87
2022-10-21T11:18:54.867Z,80.07
2022-10-21T11:19:54.832Z,80.18
2022-10-21T11:20:54.866Z,80.27
2022-10-21T11:21:54.841Z,80.58
2022-10-21T11:22:54.909Z,81.59
2022-10-21T11:23:57.699Z,80.58
2022-10-21T11:24:54.691Z,80.58
2022-10-21T11:25:54.668Z,80.38
2022-10-21T11:26:54.639Z,79.77
2022-10-21T11:27:54.690Z,80.58
2022-10-21T11:28:54.648Z,79.67
2022-10-21T11:29:54.560Z,80.38
2022-10-21T11:30:54.526Z,80.58
2022-10-21T11:32:10.619Z,80.58
2022-10-21T11:32:54.468Z,79.93
2022-10-21T11:33:54.470Z,79.87
2022-10-21T11:34:54.457Z,79.83
2022-10-21T11:35:57.726Z,80.13
2022-10-21T11:36:54.353Z,79.93
2022-10-21T11:37:54.327Z,80.24
2022-10-21T11:38:54.377Z,79.63
2022-10-21T11:39:54.267Z,79.43
2022-10-21T11:40:54.242Z,79.23
2022-10-21T11:41:54.220Z,79.63
2022-10-21T11:42:54.248Z,79.69
2022-10-21T11:43:54.242Z,79.39
2022-10-21T11:44:54.191Z,78.99
2022-10-21T11:45:54.104Z,78.08
2022-10-21T11:46:54.072Z,79.23
2022-10-21T11:47:55.044Z,79.69
2022-10-21T11:48:54.026Z,79.39
2022-10-21T11:49:53.993Z,78.89
2022-10-21T11:50:54.028Z,79.19
2022-10-21T11:51:53.935Z,78.99
2022-10-21T11:52:53.919Z,78.28
2022-10-21T11:53:54.030Z,78.49
2022-10-21T11:55:08.960Z,79.19
2022-10-21T11:55:53.823Z,80.04
2022-10-21T11:56:53.860Z,80.33
2022-10-21T11:57:53.788Z,79.80
2022-10-21T11:58:53.737Z,80.13
2022-10-21T11:59:56.542Z,80.33
2022-10-21T12:00:53.689Z,80.44
2022-10-21T12:01:53.700Z,80.33
2022-10-21T12:02:53.728Z,80.44
2022-10-21T12:03:53.875Z,79.83
2022-10-21T12:04:53.568Z,80.13
2022-10-21T12:05:53.543Z,80.33
2022-10-21T12:06:53.521Z,80.47
2022-10-21T12:07:53.484Z,80.18
2022-10-21T12:08:53.522Z,80.68
2022-10-21T12:09:53.434Z,80.38
2022-10-21T12:10:53.399Z,81.18
2022-10-21T12:11:53.374Z,80.88
2022-10-21T12:12:53.345Z,80.27
2022-10-21T12:13:53.316Z,81.79
2022-10-21T12:14:53.378Z,81.28
2022-10-21T12:15:53.327Z,81.08
2022-10-21T12:16:53.229Z,81.79
2022-10-21T12:17:53.203Z,81.08
2022-10-21T12:18:53.170Z,81.89
2022-10-21T12:19:53.145Z,81.89
2022-10-21T12:20:53.171Z,81.42
2022-10-21T12:21:53.090Z,81.79
2022-10-21T12:22:53.060Z,83.14
2022-10-21T12:23:53.292Z,82.23
2022-10-21T12:24:52.999Z,82.33
2022-10-21T12:25:53.553Z,83.04
2022-10-21T12:26:52.943Z,81.93
2022-10-21T12:27:52.931Z,82.73
2022-10-21T12:28:52.894Z,81.89
2022-10-21T12:29:52.869Z,81.08
2022-10-21T12:30:52.834Z,81.79
2022-10-21T12:31:52.940Z,80.38
2022-10-21T12:32:52.773Z,81.18
2022-10-21T12:33:52.748Z,81.89
2022-10-21T12:34:52.717Z,80.88
2022-10-21T12:35:52.690Z,80.07
2022-10-21T12:36:52.779Z,79.97
2022-10-21T12:37:52.718Z,79.16
2022-10-21T12:38:52.603Z,78.96
2022-10-21T12:39:52.576Z,79.13
2022-10-21T12:40:52.562Z,79.06
2022-10-21T12:41:52.516Z,78.66
2022-10-21T12:42:52.491Z,78.46
2022-10-21T12:43:52.521Z,78.86
2022-10-21T12:44:52.521Z,79.16
2022-10-21T12:45:52.407Z,78.63
2022-10-21T12:46:52.380Z,78.83
2022-10-21T12:47:52.350Z,78.96
2022-10-21T12:48:52.327Z,79.57
2022-10-21T12:49:52.355Z,78.86
2022-10-21T12:50:55.071Z,79.06
2022-10-21T12:51:52.236Z,79.16
2022-10-21T12:52:52.205Z,79.67
2022-10-21T12:54:52.153Z,78.46
2022-10-21T12:55:52.170Z,79.57